Time;durP1;ratioP1;P1;durP2;ratioP2;P2;SDS_P1;SDS_P2;PMS_P1;PMS_P2;Temp;Humidity;BMP_temperature;BMP_pressure;BME280_temperature;BME280_humidity;BME280_pressure;Samples;Min_cycle;Max_cycle;Signal;HPM_P1;HPM_P2
2022/06/26 00:02:24;;;;;;;15.70;14.20;;;;;;;16.25;100.00;96422.09;10494625;28;20274;-49
2022/06/26 00:07:25;;;;;;;15.85;14.25;;;;;;;16.26;100.00;96418.41;10494426;28;20211;-49
2022/06/26 00:12:25;;;;;;;14.32;12.93;;;;;;;16.31;100.00;96425.75;10494275;28;20290;-49
2022/06/26 00:17:26;;;;;;;15.57;12.85;;;;;;;16.24;100.00;96415.16;10493890;28;20214;-50
2022/06/26 00:22:26;;;;;;;14.40;12.75;;;;;;;16.19;100.00;96428.16;10494110;28;20704;-51
2022/06/26 00:27:28;;;;;;;16.27;13.10;;;;;;;16.15;100.00;96429.56;10493834;28;20292;-50
2022/06/26 00:32:28;;;;;;;16.38;12.80;;;;;;;16.08;100.00;96431.38;10492517;28;20878;-49
2022/06/26 00:37:29;;;;;;;13.88;11.70;;;;;;;16.03;100.00;96429.31;10493455;28;20315;-52
2022/06/26 00:42:29;;;;;;;15.00;12.52;;;;;;;16.07;100.00;96430.56;10492518;28;20195;-51
2022/06/26 00:47:31;;;;;;;12.10;10.90;;;;;;;16.04;100.00;96437.03;10493382;28;20553;-49
2022/06/26 00:52:33;;;;;;;12.32;11.05;;;;;;;16.08;100.00;96439.28;10493291;28;20576;-51
2022/06/26 00:57:36;;;;;;;12.07;10.90;;;;;;;16.14;100.00;96438.50;10493074;28;20202;-49
2022/06/26 01:02:37;;;;;;;13.15;9.20;;;;;;;16.19;100.00;96436.91;10493042;28;20186;-55
2022/06/26 01:07:39;;;;;;;10.98;9.98;;;;;;;16.13;100.00;96429.78;10493487;28;20210;-53
2022/06/26 01:12:40;;;;;;;9.77;8.80;;;;;;;16.26;100.00;96433.47;10493537;28;20257;-49
2022/06/26 01:17:44;;;;;;;12.35;9.23;;;;;;;16.23;100.00;96432.03;10474788;28;20211;-53
2022/06/26 01:23:01;;;;;;;9.85;8.93;;;;;;;16.28;100.00;96437.53;10474915;28;20185;-52
2022/06/26 01:28:02;;;;;;;10.13;9.05;;;;;;;16.22;100.00;96435.69;10492493;28;20593;-52
2022/06/26 01:33:02;;;;;;;10.48;9.18;;;;;;;16.10;100.00;96437.28;10474565;28;20272;-51
2022/06/26 01:38:14;;;;;;;11.05;9.90;;;;;;;16.01;100.00;96440.09;10490716;28;20241;-49
2022/06/26 01:43:17;;;;;;;11.25;9.75;;;;;;;15.97;100.00;96445.97;10492358;28;20171;-51
2022/06/26 01:48:18;;;;;;;10.77;9.77;;;;;;;15.92;100.00;96449.19;10490849;28;20686;-50
2022/06/26 01:53:18;;;;;;;10.32;9.32;;;;;;;15.86;100.00;96445.53;10495296;28;20238;-52
2022/06/26 01:58:21;;;;;;;10.60;9.70;;;;;;;15.90;100.00;96443.31;10481576;28;20219;-51
2022/06/26 02:03:22;;;;;;;11.45;10.45;;;;;;;15.98;100.00;96439.69;10498189;28;20191;-51
2022/06/26 02:08:24;;;;;;;11.10;10.00;;;;;;;15.99;100.00;96442.13;10481255;28;20211;-49
2022/06/26 02:13:37;;;;;;;11.40;10.15;;;;;;;16.06;100.00;96442.13;10481104;28;20211;-50
2022/06/26 02:18:40;;;;;;;12.52;11.32;;;;;;;16.04;100.00;96446.81;10480910;28;20231;-54
2022/06/26 02:23:41;;;;;;;13.25;10.38;;;;;;;16.09;100.00;96451.50;10500222;28;20183;-54
2022/06/26 02:28:42;;;;;;;11.40;10.32;;;;;;;15.96;100.00;96454.91;10480243;28;20223;-53
2022/06/26 02:33:42;;;;;;;13.57;12.35;;;;;;;15.75;100.00;96467.16;10480556;28;20569;-52
2022/06/26 02:38:42;;;;;;;14.18;12.85;;;;;;;15.66;100.00;96463.06;10479426;28;20238;-51
2022/06/26 02:43:43;;;;;;;14.10;12.77;;;;;;;15.65;100.00;96472.81;10516678;23;20242;-59
2022/06/26 02:48:44;;;;;;;14.52;13.02;;;;;;;15.72;100.00;96474.69;10496518;28;20180;-56
2022/06/26 02:53:45;;;;;;;14.82;13.43;;;;;;;15.74;100.00;96477.94;10490341;28;20247;-57
2022/06/26 02:58:46;;;;;;;15.50;13.93;;;;;;;15.74;100.00;96480.56;10490818;28;20681;-57
2022/06/26 03:03:49;;;;;;;15.10;13.50;;;;;;;15.82;100.00;96478.63;10506456;28;20207;-56
2022/06/26 03:08:50;;;;;;;18.80;14.48;;;;;;;15.87;100.00;96496.53;10497403;28;20274;-54
2022/06/26 03:13:50;;;;;;;19.30;15.52;;;;;;;15.97;100.00;96496.16;10490523;28;20230;-54
2022/06/26 03:18:50;;;;;;;19.42;17.33;;;;;;;16.02;100.00;96506.97;10490447;28;20317;-56
2022/06/26 03:24:03;;;;;;;20.15;18.10;;;;;;;16.20;100.00;96506.44;10496821;28;20200;-54
2022/06/26 03:29:07;;;;;;;21.80;19.35;;;;;;;16.26;100.00;96503.00;10492015;28;20191;-54
2022/06/26 03:34:09;;;;;;;22.58;20.17;;;;;;;16.23;100.00;96503.38;10492207;28;20222;-53
2022/06/26 03:39:09;;;;;;;25.50;20.90;;;;;;;16.07;100.00;96509.84;10492495;28;20662;-53
2022/06/26 03:44:11;;;;;;;21.23;18.65;;;;;;;16.03;100.00;96521.81;10492165;28;20246;-53
2022/06/26 03:49:12;;;;;;;22.85;20.48;;;;;;;15.92;100.00;96517.88;10495671;28;20183;-56
2022/06/26 03:54:13;;;;;;;22.50;18.83;;;;;;;16.10;100.00;96521.84;10491986;28;20807;-55
2022/06/26 03:59:13;;;;;;;23.40;20.52;;;;;;;16.18;100.00;96521.69;10495032;28;20183;-56
2022/06/26 04:04:14;;;;;;;23.98;21.40;;;;;;;16.36;100.00;96523.78;10492008;28;20203;-55
2022/06/26 04:09:14;;;;;;;23.98;21.42;;;;;;;16.52;100.00;96527.91;10491674;28;20237;-55
2022/06/26 04:14:15;;;;;;;23.65;20.95;;;;;;;16.83;100.00;96527.38;10494043;28;20306;-58
2022/06/26 04:19:15;;;;;;;21.85;19.63;;;;;;;17.06;100.00;96524.41;10494143;28;20179;-58
2022/06/26 04:24:16;;;;;;;19.42;17.40;;;;;;;17.32;100.00;96524.59;10491519;28;20203;-53
2022/06/26 04:29:16;;;;;;;17.83;16.13;;;;;;;17.46;100.00;96519.09;10491467;28;20188;-56
2022/06/26 04:34:17;;;;;;;16.23;14.52;;;;;;;17.86;100.00;96514.78;10494019;28;20314;-54
2022/06/26 04:39:17;;;;;;;14.80;13.35;;;;;;;18.06;100.00;96506.81;10490798;28;20195;-57
2022/06/26 04:44:18;;;;;;;14.75;13.23;;;;;;;18.21;100.00;96506.53;10493559;28;20227;-53
2022/06/26 04:49:23;;;;;;;15.13;11.95;;;;;;;18.34;100.00;96509.13;10492021;28;20199;-58
2022/06/26 04:54:24;;;;;;;11.93;10.65;;;;;;;18.61;100.00;96509.81;10491640;28;20644;-53
2022/06/26 04:59:24;;;;;;;11.65;10.13;;;;;;;18.79;100.00;96513.59;10493663;28;20180;-55
2022/06/26 05:04:30;;;;;;;10.65;9.65;;;;;;;18.98;100.00;96515.34;10484394;28;20765;-54
2022/06/26 05:10:00;;;;;;;12.85;10.00;;;;;;;19.07;100.00;96519.38;10434826;28;20215;-53
2022/06/26 05:15:01;;;;;;;10.57;9.48;;;;;;;19.22;100.00;96532.34;10488554;28;20849;-54
2022/06/26 05:20:10;;;;;;;10.93;9.15;;;;;;;19.46;100.00;96532.53;10489707;28;20222;-54
2022/06/26 05:25:11;;;;;;;8.98;7.50;;;;;;;19.78;100.00;96524.53;10489450;28;20191;-57
2022/06/26 05:30:11;;;;;;;8.65;7.75;;;;;;;20.00;100.00;96532.06;10497151;28;20218;-54
2022/06/26 05:35:14;;;;;;;8.57;6.72;;;;;;;20.42;100.00;96535.69;10497707;28;20242;-54
2022/06/26 05:40:14;;;;;;;6.88;6.20;;;;;;;20.75;100.00;96531.00;10496798;28;20238;-58
2022/06/26 05:45:16;;;;;;;6.80;6.30;;;;;;;21.24;100.00;96533.59;10497836;28;20908;-58
2022/06/26 05:50:32;;;;;;;6.60;5.78;;;;;;;21.51;99.98;96526.81;10491206;28;20688;-55
2022/06/26 05:55:46;;;;;;;5.65;5.22;;;;;;;21.73;97.17;96531.59;10493161;28;20272;-57
2022/06/26 06:01:22;;;;;;;7.78;4.97;;;;;;;22.17;93.64;96531.19;10488598;28;20215;-58
2022/06/26 06:06:27;;;;;;;5.97;5.28;;;;;;;22.19;91.82;96537.94;10498490;28;20180;-55
2022/06/26 06:11:27;;;;;;;5.28;4.88;;;;;;;22.58;90.27;96532.84;10498055;28;20644;-61
2022/06/26 06:16:29;;;;;;;4.75;4.25;;;;;;;22.50;82.12;96503.06;10482186;28;20219;-61
2022/06/26 06:21:29;;;;;;;4.53;4.13;;;;;;;22.18;84.97;96530.97;10489678;28;20211;-61
2022/06/26 06:26:30;;;;;;;4.78;4.20;;;;;;;22.67;82.27;96521.81;10489734;28;20194;-62
2022/06/26 06:31:41;;;;;;;4.40;3.75;;;;;;;23.05;77.94;96491.78;10491107;28;20214;-60
2022/06/26 06:36:43;;;;;;;4.20;3.80;;;;;;;23.99;76.15;96500.97;10490559;28;20222;-61
2022/06/26 06:41:45;;;;;;;3.95;3.17;;;;;;;24.35;72.85;96481.88;10489256;28;20258;-60
2022/06/26 06:46:46;;;;;;;5.18;3.50;;;;;;;25.99;67.05;96455.66;10491091;28;20190;-56
2022/06/26 06:51:49;;;;;;;5.03;3.08;;;;;;;26.78;61.77;96409.97;10491385;28;20218;-55
2022/06/26 06:56:50;;;;;;;5.00;2.50;;;;;;;26.47;62.08;96439.44;10490973;28;20211;-59
2022/06/26 07:01:51;;;;;;;3.33;2.40;;;;;;;26.50;61.78;96439.72;10497711;28;20723;-57
2022/06/26 07:06:52;;;;;;;3.40;2.38;;;;;;;27.12;59.74;96425.53;10492082;28;20183;-59
2022/06/26 07:11:52;;;;;;;3.23;2.30;;;;;;;27.35;56.42;96379.31;10491001;28;20584;-60
2022/06/26 07:16:53;;;;;;;2.75;2.35;;;;;;;28.34;55.36;96382.41;10496942;28;20465;-60
2022/06/26 07:21:55;;;;;;;1.98;1.88;;;;;;;28.52;55.14;96394.44;10490858;28;20262;-61
2022/06/26 07:26:56;;;;;;;2.30;2.10;;;;;;;28.70;54.63;96390.28;10496315;28;20199;-61
2022/06/26 07:31:56;;;;;;;3.17;2.47;;;;;;;28.16;53.62;96363.13;10490603;28;20214;-61
2022/06/26 07:36:58;;;;;;;3.53;2.47;;;;;;;26.82;56.97;96387.66;10490689;28;21079;-61
2022/06/26 07:41:59;;;;;;;2.15;2.05;;;;;;;28.07;53.73;96372.84;10490087;28;20231;-61
2022/06/26 07:47:04;;;;;;;2.80;2.45;;;;;;;29.90;50.53;96353.81;10491033;28;20191;-61
2022/06/26 07:52:19;;;;;;;3.35;2.05;;;;;;;29.60;49.94;96334.94;10493053;28;20202;-60
2022/06/26 07:57:19;;;;;;;2.80;2.58;;;;;;;29.18;50.46;96347.25;10495106;28;20215;-60
2022/06/26 08:02:20;;;;;;;2.70;2.33;;;;;;;28.96;51.82;96374.69;10495019;28;20677;-59
2022/06/26 08:07:20;;;;;;;3.10;2.03;;;;;;;29.79;51.58;96394.41;10495111;28;20781;-58
2022/06/26 08:12:21;;;;;;;4.00;2.40;;;;;;;30.36;47.52;96326.13;10494628;28;20906;-59
2022/06/26 08:17:21;;;;;;;3.80;2.20;;;;;;;31.98;45.76;96330.81;10494769;28;20310;-58
2022/06/26 08:22:22;;;;;;;3.55;2.20;;;;;;;30.45;48.26;96319.00;10494253;28;20472;-59
2022/06/26 08:27:22;;;;;;;2.10;2.00;;;;;;;31.47;47.20;96348.09;10494380;28;20569;-54
2022/06/26 08:32:22;;;;;;;3.37;1.87;;;;;;;31.72;46.29;96327.06;10494065;28;20234;-54
2022/06/26 08:37:23;;;;;;;2.03;1.80;;;;;;;33.20;41.42;96252.25;10494072;28;20542;-55
2022/06/26 08:42:25;;;;;;;4.90;2.07;;;;;;;31.88;43.97;96287.69;10512449;23;20529;-57
2022/06/26 08:47:30;;;;;;;2.58;2.10;;;;;;;31.98;45.57;96344.38;10493497;28;20508;-60
2022/06/26 08:52:30;;;;;;;3.70;1.90;;;;;;;32.75;43.68;96320.16;10492060;28;20207;-57
2022/06/26 08:57:33;;;;;;;2.75;2.33;;;;;;;32.86;44.36;96331.56;10493498;28;20592;-55
2022/06/26 09:02:33;;;;;;;2.72;1.98;;;;;;;31.55;46.30;96352.84;10541935;28;20641;-55
2022/06/26 09:07:46;;;;;;;1.80;1.70;;;;;;;32.00;44.17;96323.19;10549225;28;20194;-58
2022/06/26 09:12:55;;;;;;;2.30;1.90;;;;;;;31.33;44.61;96301.28;10548971;28;20468;-57
2022/06/26 09:17:59;;;;;;;2.10;2.00;;;;;;;30.45;46.94;96346.03;10548909;28;20217;-55
2022/06/26 09:23:00;;;;;;;4.70;2.13;;;;;;;29.44;50.50;96393.72;10548366;28;20205;-57
2022/06/26 09:28:15;;;;;;;4.80;2.38;;;;;;;29.27;46.79;96307.81;10548943;28;20190;-58
2022/06/26 09:33:15;;;;;;;2.92;2.33;;;;;;;28.11;49.56;96328.94;10548562;28;20261;-51
2022/06/26 09:38:17;;;;;;;2.22;1.98;;;;;;;30.24;47.48;96367.09;10547936;28;20222;-56
2022/06/26 09:43:51;;;;;;;2.03;1.85;;;;;;;30.06;46.41;96331.69;10548387;28;20313;-54
2022/06/26 09:48:52;;;;;;;2.22;2.00;;;;;;;32.09;43.77;96355.78;10497911;28;20289;-57
2022/06/26 09:53:53;;;;;;;2.17;2.00;;;;;;;32.14;43.25;96330.53;10530008;28;20652;-57
2022/06/26 09:58:54;;;;;;;2.90;2.20;;;;;;;32.44;42.12;96320.88;10547921;28;20186;-54
2022/06/26 10:09:21;;;;;;;3.40;2.70;;;;;;;33.01;41.75;96322.22;10502868;28;20205;-57
2022/06/26 10:14:25;;;;;;;3.75;2.38;;;;;;;33.16;42.02;96340.81;10543944;28;20652;-57
2022/06/26 10:19:45;;;;;;;4.63;2.95;;;;;;;31.57;46.46;96390.47;10523040;28;20202;-56
2022/06/26 10:24:57;;;;;;;3.47;2.63;;;;;;;31.63;46.45;96379.22;10523185;28;20715;-55
2022/06/26 10:30:13;;;;;;;4.28;2.92;;;;;;;30.24;47.53;96364.41;10540847;28;20202;-54
2022/06/26 10:35:14;;;;;;;4.70;2.70;;;;;;;30.53;47.90;96390.53;10540695;28;20730;-53
2022/06/26 10:45:42;;;;;;;3.53;3.22;;;;;;;31.17;47.62;96407.09;10540138;28;20218;-52
2022/06/26 10:50:42;;;;;;;3.35;2.95;;;;;;;32.07;46.01;96405.97;10539606;28;20281;-53
2022/06/26 10:55:46;;;;;;;5.35;2.90;;;;;;;31.44;47.59;96402.84;10539897;28;20218;-52
2022/06/26 11:00:46;;;;;;;2.85;2.65;;;;;;;31.15;46.93;96384.13;10539239;28;20206;-56
2022/06/26 11:05:53;;;;;;;3.15;2.85;;;;;;;31.41;46.19;96370.94;10539361;28;20260;-57
2022/06/26 11:11:07;;;;;;;6.05;3.70;;;;;;;30.84;46.98;96374.59;10539121;28;20705;-54
2022/06/26 11:16:08;;;;;;;5.50;3.83;;;;;;;30.27;50.13;96428.69;10538846;28;20288;-57
2022/06/26 11:21:08;;;;;;;5.47;4.27;;;;;;;29.72;51.73;96447.94;10538561;28;20279;-57
2022/06/26 11:26:11;;;;;;;5.28;3.88;;;;;;;28.31;53.30;96434.16;10537949;28;20433;-56
2022/06/26 11:31:19;;;;;;;5.00;4.50;;;;;;;28.37;54.45;96466.19;10538184;28;20323;-52
2022/06/26 11:36:22;;;;;;;6.75;4.22;;;;;;;27.55;55.07;96469.09;10537819;28;20693;-53
2022/06/26 11:41:23;;;;;;;4.65;4.22;;;;;;;28.00;56.43;96517.78;10537577;28;20234;-53
2022/06/26 11:46:24;;;;;;;6.43;5.65;;;;;;;26.75;58.75;96520.69;10537589;28;20178;-56
2022/06/26 11:51:24;;;;;;;5.20;4.63;;;;;;;26.98;57.89;96504.03;10539108;28;20218;-54
2022/06/26 11:56:27;;;;;;;5.47;4.97;;;;;;;27.42;56.28;96485.81;10537149;28;20783;-57
2022/06/26 12:01:36;;;;;;;5.93;5.32;;;;;;;28.53;54.96;96479.56;10536867;28;20750;-58
2022/06/26 12:06:41;;;;;;;5.68;5.05;;;;;;;27.60;57.81;96514.88;10537037;28;20248;-58
2022/06/26 12:11:42;;;;;;;4.78;4.28;;;;;;;27.74;55.55;96478.22;10536612;28;20317;-59
2022/06/26 12:16:47;;;;;;;7.20;5.68;;;;;;;26.36;58.32;96496.91;10536376;28;20650;-56
2022/06/26 12:21:50;;;;;;;6.15;5.43;;;;;;;26.19;59.98;96532.81;10518384;28;20299;-58
2022/06/26 12:26:50;;;;;;;6.25;5.75;;;;;;;26.29;61.82;96557.00;10523381;28;20230;-57
2022/06/26 12:31:53;;;;;;;7.32;6.68;;;;;;;26.13;61.59;96553.44;10493876;28;20306;-58
2022/06/26 12:36:54;;;;;;;9.82;8.55;;;;;;;25.19;70.40;96630.72;10493016;28;20227;-55
2022/06/26 12:41:54;;;;;;;12.23;9.18;;;;;;;24.11;80.07;96612.47;10493168;28;20243;-52
2022/06/26 12:46:55;;;;;;;11.38;10.27;;;;;;;23.41;89.24;96593.16;10493669;28;20187;-53
2022/06/26 12:51:55;;;;;;;11.23;10.13;;;;;;;23.10;95.90;96608.66;10493384;28;20264;-56
2022/06/26 12:56:56;;;;;;;11.68;10.45;;;;;;;23.02;100.00;96609.81;10493215;28;20695;-54
2022/06/26 13:01:56;;;;;;;11.13;9.00;;;;;;;22.75;100.00;96604.22;10493330;28;20578;-56
2022/06/26 13:06:57;;;;;;;8.60;7.75;;;;;;;22.86;98.87;96595.34;10493112;28;20536;-53
2022/06/26 13:11:57;;;;;;;7.00;6.32;;;;;;;23.26;89.08;96572.31;10493254;28;20592;-54
2022/06/26 13:16:57;;;;;;;8.57;7.68;;;;;;;23.43;91.87;96585.69;10492799;28;20229;-51
2022/06/26 13:21:58;;;;;;;9.98;7.53;;;;;;;24.29;88.12;96579.25;10492881;28;20731;-52
2022/06/26 13:26:59;;;;;;;8.48;6.90;;;;;;;24.98;80.70;96556.50;10492621;28;20187;-55
2022/06/26 13:31:59;;;;;;;7.65;6.90;;;;;;;25.64;78.59;96551.75;10492606;28;20238;-53
2022/06/26 13:36:59;;;;;;;6.30;5.60;;;;;;;27.11;69.60;96504.63;10492569;28;20218;-56
2022/06/26 13:42:00;;;;;;;7.13;5.15;;;;;;;27.88;62.24;96462.31;10492078;28;20242;-50
2022/06/26 13:47:00;;;;;;;7.47;3.33;;;;;;;30.45;49.47;96310.09;10493607;28;20179;-52
2022/06/26 13:52:00;;;;;;;3.63;3.30;;;;;;;30.69;47.26;96286.44;10500032;28;20472;-50
2022/06/26 13:57:02;;;;;;;10.50;2.80;;;;;;;32.07;44.13;96281.31;10500126;28;20256;-55
2022/06/26 14:02:03;;;;;;;2.83;2.63;;;;;;;30.91;45.66;96291.19;10499767;28;20625;-52
2022/06/26 14:07:03;;;;;;;3.30;2.60;;;;;;;31.65;44.98;96309.31;10497549;28;20215;-54
2022/06/26 14:12:04;;;;;;;2.65;2.45;;;;;;;32.87;43.06;96306.81;10499446;28;20935;-55
2022/06/26 14:17:04;;;;;;;2.50;2.30;;;;;;;33.69;39.62;96252.22;10499346;28;20231;-58
2022/06/26 14:27:23;;;;;;;3.22;1.67;;;;;;;35.27;35.12;96168.41;10499213;28;20190;-55
2022/06/26 14:32:23;;;;;;;1.83;1.60;;;;;;;36.85;33.30;96178.72;10498722;28;20756;-55
2022/06/26 14:37:24;;;;;;;2.00;1.63;;;;;;;39.71;30.20;96197.00;10498443;28;20720;-59
2022/06/26 14:42:24;;;;;;;2.08;1.88;;;;;;;39.66;28.96;96128.72;10498044;28;20808;-56
2022/06/26 14:47:25;;;;;;;2.83;2.10;;;;;;;39.12;31.24;96195.28;10498176;28;20210;-59
2022/06/26 14:52:25;;;;;;;1.80;1.70;;;;;;;41.10;28.18;96199.97;10498118;28;20222;-58
2022/06/26 14:57:25;;;;;;;2.27;1.90;;;;;;;39.51;29.59;96173.41;10497772;28;20214;-55
2022/06/26 15:02:26;;;;;;;2.07;1.80;;;;;;;41.13;27.56;96169.00;10496741;28;20214;-60
2022/06/26 15:07:26;;;;;;;2.03;1.90;;;;;;;42.00;26.04;96150.94;10497456;28;20194;-58
2022/06/26 15:12:26;;;;;;;2.10;1.90;;;;;;;40.10;28.06;96130.38;10497168;28;20213;-59
2022/06/26 15:17:27;;;;;;;2.37;1.80;;;;;;;42.74;25.79;96163.09;10496827;28;20264;-58
2022/06/26 15:22:27;;;;;;;1.97;1.77;;;;;;;42.32;26.51;96173.31;10496644;28;20238;-59
2022/06/26 15:27:27;;;;;;;2.07;1.80;;;;;;;42.27;26.66;96165.41;10496271;28;20610;-59
2022/06/26 15:32:29;;;;;;;1.80;1.70;;;;;;;41.98;26.66;96131.22;10496199;28;20535;-58
2022/06/26 15:37:29;;;;;;;2.72;2.50;;;;;;;38.71;29.90;96127.75;10495951;28;20215;-61
2022/06/26 15:42:30;;;;;;;4.80;2.70;;;;;;;39.86;28.58;96129.50;10494917;28;20264;-58
2022/06/26 15:47:30;;;;;;;4.40;3.60;;;;;;;37.13;31.34;96099.59;10495641;28;20187;-57
2022/06/26 15:52:31;;;;;;;7.13;2.63;;;;;;;37.26;32.16;96157.78;10495229;28;20245;-58
2022/06/26 15:57:31;;;;;;;5.43;4.23;;;;;;;37.44;32.18;96158.28;10495339;28;20214;-60
2022/06/26 16:02:32;;;;;;;4.93;3.80;;;;;;;36.63;34.25;96185.34;10494978;28;20220;-59
2022/06/26 16:07:32;;;;;;;5.30;4.30;;;;;;;34.97;35.12;96171.09;10494666;28;20210;-60
2022/06/26 16:12:32;;;;;;;5.60;4.97;;;;;;;33.99;36.92;96168.16;10494668;28;20577;-60
2022/06/26 16:17:33;;;;;;;6.50;5.00;;;;;;;32.17;41.21;96241.25;10492830;28;20895;-60
2022/06/26 16:27:52;;;;;;;5.30;4.82;;;;;;;32.41;41.69;96288.97;10494242;28;20870;-59
2022/06/26 16:32:52;;;;;;;9.77;6.13;;;;;;;30.45;45.90;96324.41;10494009;28;20310;-59
2022/06/26 16:37:53;;;;;;;7.37;6.43;;;;;;;29.32;48.92;96355.50;10505806;28;20487;-57
2022/06/26 16:42:54;;;;;;;10.77;7.25;;;;;;;29.03;47.93;96326.63;10535264;28;20465;-59
2022/06/26 16:47:54;;;;;;;7.43;6.72;;;;;;;28.42;49.83;96344.94;10535616;28;20183;-59
2022/06/26 16:52:55;;;;;;;9.73;6.73;;;;;;;28.47;49.96;96366.44;10535797;28;20210;-57
2022/06/26 16:57:55;;;;;;;8.52;7.07;;;;;;;28.46;49.62;96345.94;10536810;28;20472;-59
2022/06/26 17:02:55;;;;;;;7.63;6.82;;;;;;;27.89;51.06;96356.22;10535533;28;20233;-58
2022/06/26 17:07:56;;;;;;;9.57;6.93;;;;;;;28.06;51.27;96365.88;10534713;28;20199;-59
2022/06/26 17:13:05;;;;;;;7.15;6.38;;;;;;;28.08;51.81;96388.75;10535139;28;20458;-59
2022/06/26 17:18:05;;;;;;;7.07;6.28;;;;;;;28.02;52.12;96384.47;10535171;28;20206;-59
2022/06/26 17:23:05;;;;;;;7.07;6.33;;;;;;;27.46;54.05;96403.47;10537578;28;20234;-58
2022/06/26 17:28:06;;;;;;;7.47;5.93;;;;;;;27.13;55.05;96408.34;10543296;28;20443;-55
2022/06/26 17:33:06;;;;;;;6.70;6.07;;;;;;;27.07;56.62;96428.25;10542724;28;20226;-56
2022/06/26 17:38:10;;;;;;;7.10;6.40;;;;;;;26.85;56.98;96424.75;10542361;28;20463;-56
2022/06/26 17:43:11;;;;;;;8.60;6.18;;;;;;;26.69;57.14;96418.56;10542452;28;20372;-58
2022/06/26 17:48:11;;;;;;;8.25;7.22;;;;;;;26.75;57.27;96418.56;10542304;28;20320;-58
2022/06/26 17:53:11;;;;;;;7.50;6.80;;;;;;;26.06;59.88;96440.09;10542583;28;20214;-55
2022/06/26 17:58:12;;;;;;;7.03;6.32;;;;;;;25.61;62.06;96444.16;10541793;28;20222;-57
2022/06/26 18:03:12;;;;;;;5.93;5.30;;;;;;;25.97;60.46;96422.84;10541998;28;20210;-56
2022/06/26 18:08:14;;;;;;;5.55;5.07;;;;;;;25.56;60.67;96420.81;10541773;28;20195;-56
2022/06/26 18:13:14;;;;;;;7.68;5.13;;;;;;;25.45;61.88;96433.34;10541408;28;20218;-54
2022/06/26 18:18:14;;;;;;;5.60;5.10;;;;;;;25.09;63.52;96443.78;10541535;28;20229;-57
2022/06/26 18:23:15;;;;;;;7.70;5.30;;;;;;;25.27;63.33;96449.81;10540778;28;20210;-53
2022/06/26 18:28:15;;;;;;;13.05;5.00;;;;;;;24.70;65.00;96457.38;10541218;28;20186;-57
2022/06/26 18:33:16;;;;;;;4.88;4.47;;;;;;;24.47;66.44;96473.69;10539508;28;20214;-56
2022/06/26 18:38:16;;;;;;;5.38;4.65;;;;;;;24.28;66.18;96459.84;10521713;28;20205;-52
2022/06/26 18:43:16;;;;;;;7.40;4.55;;;;;;;24.06;66.86;96474.06;10540274;28;20317;-52
2022/06/26 18:48:17;;;;;;;4.95;4.50;;;;;;;23.98;68.06;96483.31;10539732;28;20198;-56
2022/06/26 18:53:17;;;;;;;5.25;4.75;;;;;;;23.91;70.16;96492.59;10540012;28;20282;-50
2022/06/26 18:58:17;;;;;;;6.63;4.78;;;;;;;23.29;73.86;96497.81;10539308;28;20237;-53
2022/06/26 19:03:18;;;;;;;5.32;4.82;;;;;;;22.75;76.18;96489.38;10539671;28;20211;-53
2022/06/26 19:08:18;;;;;;;6.07;5.57;;;;;;;22.58;77.51;96489.34;10539168;28;20258;-55
2022/06/26 19:18:38;;;;;;;12.52;5.97;;;;;;;22.32;81.37;96504.84;10538893;28;20192;-50
2022/06/26 19:23:38;;;;;;;7.97;6.40;;;;;;;21.89;84.24;96506.88;10538421;28;20218;-53
2022/06/26 19:28:38;;;;;;;8.55;6.80;;;;;;;21.66;87.55;96518.38;10538446;28;20205;-51
2022/06/26 19:33:39;;;;;;;7.50;5.93;;;;;;;21.64;89.11;96522.28;10538086;28;20250;-52
2022/06/26 19:38:39;;;;;;;7.90;6.63;;;;;;;21.59;89.26;96523.00;10530785;28;20198;-52
2022/06/26 19:43:41;;;;;;;5.68;5.13;;;;;;;21.45;89.77;96527.69;10495060;28;20267;-54
2022/06/26 19:48:41;;;;;;;6.63;5.93;;;;;;;21.29;91.74;96534.53;10494066;28;20199;-50
2022/06/26 19:53:42;;;;;;;6.47;5.68;;;;;;;21.11;93.74;96539.94;10494487;28;20571;-55
2022/06/26 19:58:42;;;;;;;7.80;6.00;;;;;;;20.88;96.43;96546.00;10494966;28;20987;-52
2022/06/26 20:03:59;;;;;;;8.57;6.18;;;;;;;20.77;97.50;96542.25;10503473;28;20293;-54
2022/06/26 20:08:59;;;;;;;6.95;6.00;;;;;;;20.65;99.16;96548.31;10535185;28;20187;-56
2022/06/26 20:14:00;;;;;;;7.05;6.35;;;;;;;20.46;100.00;96552.84;10536069;28;20218;-54
2022/06/26 20:19:00;;;;;;;7.22;6.00;;;;;;;20.28;100.00;96550.19;10536048;28;20218;-56
2022/06/26 20:24:01;;;;;;;7.55;6.13;;;;;;;20.10;100.00;96551.00;10536340;28;20210;-55
2022/06/26 20:29:02;;;;;;;7.47;6.78;;;;;;;19.93;100.00;96553.44;10536481;28;20198;-57
2022/06/26 20:34:03;;;;;;;6.65;5.95;;;;;;;19.91;100.00;96556.31;10535983;28;20219;-55
2022/06/26 20:39:03;;;;;;;8.32;6.25;;;;;;;19.80;100.00;96549.06;10535845;28;20263;-53
2022/06/26 20:44:04;;;;;;;10.15;6.82;;;;;;;19.55;100.00;96547.19;10500033;22;20611;-59
2022/06/26 20:49:04;;;;;;;9.35;6.15;;;;;;;19.57;100.00;96550.44;10452791;28;20184;-56
2022/06/26 20:54:05;;;;;;;8.55;6.50;;;;;;;19.43;100.00;96551.56;10479741;28;20218;-58
2022/06/26 20:59:05;;;;;;;7.40;6.65;;;;;;;19.25;100.00;96542.53;10493076;28;20206;-56
2022/06/26 21:04:05;;;;;;;8.57;5.97;;;;;;;19.18;100.00;96538.28;10493437;28;20264;-58
2022/06/26 21:09:06;;;;;;;7.72;5.90;;;;;;;19.03;100.00;96542.06;10493594;28;20211;-55
2022/06/26 21:14:07;;;;;;;11.88;6.60;;;;;;;18.82;100.00;96543.19;10535156;28;20222;-56
2022/06/26 21:19:07;;;;;;;6.88;6.18;;;;;;;18.67;100.00;96530.19;10534820;28;20285;-59
2022/06/26 21:24:07;;;;;;;6.90;6.20;;;;;;;18.69;100.00;96528.13;10535330;28;20861;-58
2022/06/26 21:29:08;;;;;;;6.18;5.63;;;;;;;18.67;100.00;96521.44;10534707;28;20555;-58
2022/06/26 21:34:09;;;;;;;7.25;6.15;;;;;;;18.54;100.00;96536.41;10534831;28;20233;-59
2022/06/26 21:39:09;;;;;;;6.57;5.90;;;;;;;18.33;100.00;96528.72;10534741;28;20194;-59
2022/06/26 21:44:09;;;;;;;9.05;5.63;;;;;;;18.31;100.00;96517.50;10534188;28;20269;-60
2022/06/26 21:49:10;;;;;;;7.05;6.05;;;;;;;18.25;100.00;96521.81;10534731;28;20206;-59
2022/06/26 21:54:11;;;;;;;7.10;6.40;;;;;;;18.25;100.00;96516.50;10534222;28;20242;-59
2022/06/26 21:59:11;;;;;;;10.07;6.32;;;;;;;18.11;100.00;96520.22;10534561;28;20202;-59
2022/06/26 22:04:11;;;;;;;6.32;5.82;;;;;;;18.09;100.00;96522.28;10534227;28;20211;-56
2022/06/26 22:09:12;;;;;;;6.60;5.95;;;;;;;18.11;100.00;96505.13;10536791;28;20206;-60
2022/06/26 22:14:12;;;;;;;7.00;6.32;;;;;;;18.04;100.00;96512.31;10541726;28;20305;-60
2022/06/26 22:19:12;;;;;;;7.28;6.47;;;;;;;17.95;100.00;96508.25;10541383;28;20198;-58
2022/06/26 22:24:13;;;;;;;7.03;6.43;;;;;;;17.93;100.00;96500.53;10541570;28;20226;-58
2022/06/26 22:29:13;;;;;;;7.53;6.70;;;;;;;17.94;100.00;96506.63;10541095;28;20222;-58
2022/06/26 22:34:13;;;;;;;7.57;5.95;;;;;;;17.78;100.00;96495.44;10540799;28;20233;-59
2022/06/26 22:39:15;;;;;;;6.85;6.18;;;;;;;17.81;100.00;96497.66;10540446;28;20194;-57
2022/06/26 22:44:15;;;;;;;12.25;6.68;;;;;;;17.79;100.00;96499.72;10540238;28;20233;-54
2022/06/26 22:49:16;;;;;;;7.07;6.38;;;;;;;17.69;100.00;96509.91;10540366;28;20191;-55
2022/06/26 22:54:16;;;;;;;7.97;6.50;;;;;;;17.67;100.00;96488.09;10540072;28;20226;-54
2022/06/26 22:59:17;;;;;;;10.20;6.63;;;;;;;17.75;100.00;96489.72;10539717;28;20229;-54
2022/06/26 23:04:17;;;;;;;7.38;6.60;;;;;;;17.60;100.00;96489.97;10539687;28;20202;-55
2022/06/26 23:09:17;;;;;;;6.97;6.28;;;;;;;17.65;100.00;96476.91;10539357;28;20249;-57
2022/06/26 23:14:17;;;;;;;10.20;6.70;;;;;;;17.61;100.00;96473.03;10539202;28;20226;-55
2022/06/26 23:19:18;;;;;;;8.55;5.90;;;;;;;17.59;100.00;96478.53;10538787;28;20226;-54
2022/06/26 23:24:18;;;;;;;6.57;5.90;;;;;;;17.63;100.00;96476.31;10520480;28;20574;-54
2022/06/26 23:29:19;;;;;;;9.82;6.50;;;;;;;17.63;100.00;96476.31;10538977;28;20198;-54
2022/06/26 23:34:19;;;;;;;7.05;6.35;;;;;;;17.53;100.00;96468.75;10538048;28;20266;-55
2022/06/26 23:39:20;;;;;;;9.35;6.55;;;;;;;17.56;100.00;96470.19;10538049;28;20604;-54